Time;durP1;ratioP1;P1;durP2;ratioP2;P2;SDS_P1;SDS_P2;PMS_P1;PMS_P2;Temp;Humidity;BMP_temperature;BMP_pressure;BME280_temperature;BME280_humidity;BME280_pressure;Samples;Min_cycle;Max_cycle;Signal;HPM_P1;HPM_P2
2021/04/04 00:00:55;;;;;;;7.75;6.28;;;;;;;3.20;63.65;100807.89;114514;1196;103270;-87
2021/04/04 00:03:22;;;;;;;8.10;7.33;;;;;;;3.18;63.94;100797.33;114554;1196;103124;-85
2021/04/04 00:05:48;;;;;;;11.47;7.63;;;;;;;3.11;64.55;100806.03;114625;1195;103107;-86
2021/04/04 00:08:16;;;;;;;10.55;6.83;;;;;;;3.03;64.33;100804.20;114169;1196;103076;-87
2021/04/04 00:10:57;;;;;;;8.40;6.63;;;;;;;3.03;64.80;100812.09;114122;1196;103325;-86
2021/04/04 00:13:23;;;;;;;7.55;6.15;;;;;;;3.00;64.10;100807.69;114397;1196;103192;-84
2021/04/04 00:15:50;;;;;;;8.00;7.10;;;;;;;2.97;64.86;100805.89;114349;1196;103118;-86
2021/04/04 00:18:26;;;;;;;11.60;7.55;;;;;;;2.94;64.57;100800.58;114299;1196;103765;-85
2021/04/04 00:20:53;;;;;;;8.58;6.33;;;;;;;2.92;64.90;100804.05;114617;1196;103159;-85
2021/04/04 00:23:20;;;;;;;10.65;7.10;;;;;;;2.95;64.95;100806.74;114345;1196;103169;-84
2021/04/04 00:25:47;;;;;;;8.47;7.40;;;;;;;2.86;65.14;100802.24;114259;1195;103213;-86
2021/04/04 00:28:15;;;;;;;7.93;7.17;;;;;;;2.86;64.85;100804.88;114299;1196;103469;-86
2021/04/04 00:30:41;;;;;;;10.37;7.77;;;;;;;2.86;65.41;100801.38;114459;1196;103103;-86
2021/04/04 00:33:08;;;;;;;10.13;7.15;;;;;;;2.86;65.33;100799.61;114396;1195;103136;-85
2021/04/04 00:35:49;;;;;;;9.65;6.63;;;;;;;2.85;64.49;100797.84;114346;1196;103246;-85
2021/04/04 00:38:16;;;;;;;7.80;6.55;;;;;;;2.91;64.97;100802.31;114159;1196;103254;-86
2021/04/04 00:40:43;;;;;;;8.27;7.47;;;;;;;2.92;65.06;100798.80;114387;1196;103109;-86
2021/04/04 00:43:10;;;;;;;9.10;6.78;;;;;;;2.86;65.32;100801.38;114290;1196;103182;-85
2021/04/04 00:45:39;;;;;;;6.90;6.23;;;;;;;2.83;64.97;100799.59;114688;1196;103210;-85
2021/04/04 00:48:07;;;;;;;9.23;8.15;;;;;;;2.83;64.98;100802.22;114311;1196;103200;-86
2021/04/04 00:50:39;;;;;;;10.77;7.37;;;;;;;2.78;64.66;100801.28;114587;1196;103066;-85
2021/04/04 00:53:07;;;;;;;9.50;8.53;;;;;;;2.75;64.54;100804.75;114437;1196;103159;-85
2021/04/04 00:55:49;;;;;;;8.13;7.30;;;;;;;2.76;65.38;100803.89;114228;1196;103200;-85
2021/04/04 00:58:16;;;;;;;12.23;6.78;;;;;;;2.76;65.17;100811.78;114418;1195;103133;-85
2021/04/04 01:00:58;;;;;;;8.07;6.17;;;;;;;2.72;65.61;100807.35;114331;1196;103101;-86
2021/04/04 01:03:39;;;;;;;10.70;6.98;;;;;;;2.77;65.01;100812.66;114104;1199;103290;-86
2021/04/04 01:06:07;;;;;;;8.25;6.48;;;;;;;2.78;65.14;100807.41;114098;1199;103293;-86
2021/04/04 01:08:36;;;;;;;7.20;6.50;;;;;;;2.74;64.76;100820.52;114359;1196;103209;-86
2021/04/04 01:11:04;;;;;;;9.40;6.98;;;;;;;2.70;65.05;100821.34;114430;1196;103198;-85
2021/04/04 01:14:02;;;;;;;7.85;7.20;;;;;;;2.69;65.20;100820.44;114328;1195;103581;-87
2021/04/04 01:16:47;;;;;;;10.73;6.93;;;;;;;2.57;65.59;100828.18;114432;1196;103213;-86
2021/04/04 01:19:33;;;;;;;7.07;6.37;;;;;;;2.48;66.54;100821.07;114597;1196;103245;-86
2021/04/04 01:22:33;;;;;;;7.60;6.90;;;;;;;2.49;66.67;100817.55;114379;1196;103121;-86
2021/04/04 01:25:08;;;;;;;7.85;6.23;;;;;;;2.46;66.91;100814.89;114618;1196;103188;-86
2021/04/04 01:27:41;;;;;;;8.80;6.10;;;;;;;2.45;66.55;100815.75;114524;1197;103220;-84
2021/04/04 01:30:12;;;;;;;8.27;6.40;;;;;;;2.46;67.29;100818.39;114440;1196;103131;-86
2021/04/04 01:32:42;;;;;;;8.30;7.25;;;;;;;2.44;68.05;100814.88;114482;1195;103185;-86
2021/04/04 01:35:13;;;;;;;14.58;8.05;;;;;;;2.43;67.68;100809.61;114204;1196;104767;-87
2021/04/04 01:37:42;;;;;;;7.43;6.28;;;;;;;2.47;67.73;100811.41;114424;1196;103037;-87
2021/04/04 01:40:13;;;;;;;7.90;6.35;;;;;;;2.46;67.62;100807.88;114262;1196;103104;-85
2021/04/04 01:42:40;;;;;;;8.70;6.70;;;;;;;2.50;67.57;100816.70;114205;1196;103133;-85
2021/04/04 01:45:08;;;;;;;9.97;8.33;;;;;;;2.54;67.94;100815.88;114267;1196;103510;-86
2021/04/04 01:47:50;;;;;;;7.80;6.80;;;;;;;2.58;67.96;100820.30;114103;1196;103242;-86
2021/04/04 01:50:31;;;;;;;12.03;7.03;;;;;;;2.59;67.88;100818.58;114270;1196;103213;-85
2021/04/04 01:53:00;;;;;;;7.80;7.00;;;;;;;2.58;68.03;100816.80;114101;1196;103264;-86
2021/04/04 01:55:27;;;;;;;7.75;6.93;;;;;;;2.61;67.56;100808.95;114213;1196;103034;-86
2021/04/04 01:58:10;;;;;;;14.10;8.37;;;;;;;2.61;67.82;100823.00;114044;1196;103095;-86
2021/04/04 02:00:38;;;;;;;8.55;6.68;;;;;;;2.59;68.44;100821.20;114007;1196;103107;-85
2021/04/04 02:03:07;;;;;;;10.85;7.88;;;;;;;2.59;67.63;100816.82;114148;1196;103425;-85
2021/04/04 02:05:34;;;;;;;10.05;6.88;;;;;;;2.68;67.42;100822.20;114068;1196;103230;-86
2021/04/04 02:08:16;;;;;;;8.20;6.67;;;;;;;2.76;67.97;100811.78;113669;1199;103683;-86
2021/04/04 02:10:59;;;;;;;9.17;7.57;;;;;;;2.76;68.41;100824.94;113505;1202;103137;-85
2021/04/04 02:13:27;;;;;;;12.93;8.53;;;;;;;2.78;66.99;100825.81;113648;1201;103236;-86
2021/04/04 02:16:01;;;;;;;12.85;9.20;;;;;;;2.79;67.57;100814.44;113751;1201;103428;-86
2021/04/04 02:18:28;;;;;;;13.63;10.83;;;;;;;2.83;67.70;100825.89;113727;1202;103293;-85
2021/04/04 02:20:59;;;;;;;13.30;10.20;;;;;;;2.79;68.04;100830.22;113541;1202;103222;-87
2021/04/04 02:23:27;;;;;;;9.83;7.60;;;;;;;2.78;67.82;100812.66;113678;1200;103175;-85
2021/04/04 02:25:55;;;;;;;10.35;7.45;;;;;;;2.82;67.82;100829.38;114079;1199;103261;-86
2021/04/04 02:28:23;;;;;;;8.67;6.80;;;;;;;2.81;67.58;100820.62;113947;1199;103372;-86
2021/04/04 02:31:04;;;;;;;6.40;5.80;;;;;;;2.83;67.36;100813.61;113866;1200;103339;-86
2021/04/04 02:33:42;;;;;;;9.10;6.38;;;;;;;2.85;67.95;100816.25;113850;1200;103310;-87
2021/04/04 02:36:12;;;;;;;6.75;6.08;;;;;;;2.84;68.05;100819.77;113904;1200;103382;-86
2021/04/04 02:38:43;;;;;;;9.13;7.43;;;;;;;2.84;67.66;100803.98;113831;1199;104796;-86
2021/04/04 02:41:10;;;;;;;9.53;7.23;;;;;;;2.80;68.08;100821.47;114041;1199;103430;-86
2021/04/04 02:43:39;;;;;;;8.25;6.23;;;;;;;2.82;67.68;100819.73;114187;1199;103468;-86
2021/04/04 02:46:10;;;;;;;8.93;5.75;;;;;;;2.83;68.09;100816.24;114191;1196;103568;-87
2021/04/04 02:48:45;;;;;;;7.33;5.93;;;;;;;2.89;67.22;100823.31;114314;1196;103214;-87
2021/04/04 02:51:18;;;;;;;8.40;6.20;;;;;;;2.96;67.80;100821.64;114343;1196;103130;-86
2021/04/04 02:53:47;;;;;;;7.35;5.95;;;;;;;3.03;67.33;100828.75;114108;1200;103399;-85
2021/04/04 02:56:18;;;;;;;8.00;6.58;;;;;;;3.05;67.66;100831.40;114166;1199;103901;-85
2021/04/04 02:58:50;;;;;;;5.80;5.30;;;;;;;3.08;67.05;100831.42;114205;1199;103280;-85
2021/04/04 03:01:17;;;;;;;8.47;6.77;;;;;;;3.06;67.25;100839.30;114079;1198;103255;-86
2021/04/04 03:03:58;;;;;;;6.65;5.55;;;;;;;3.03;66.87;100830.52;114022;1200;103159;-86
2021/04/04 03:06:26;;;;;;;7.40;6.73;;;;;;;3.04;68.08;100829.63;114183;1199;103212;-86
2021/04/04 03:08:53;;;;;;;9.97;6.40;;;;;;;3.06;66.90;100835.80;114241;1196;103229;-85
2021/04/04 03:11:20;;;;;;;8.43;6.77;;;;;;;3.12;66.85;100830.59;114179;1198;103261;-85
2021/04/04 03:13:49;;;;;;;9.98;5.83;;;;;;;3.11;66.39;100836.75;114186;1198;103278;-85
2021/04/04 03:16:19;;;;;;;8.00;5.55;;;;;;;3.16;66.55;100829.78;114503;1196;103239;-86
2021/04/04 03:18:46;;;;;;;8.13;7.20;;;;;;;3.15;67.10;100836.78;114681;1196;103341;-86
2021/04/04 03:21:15;;;;;;;8.63;6.17;;;;;;;3.21;67.20;100845.61;114267;1200;103287;-86
2021/04/04 03:23:42;;;;;;;8.15;6.05;;;;;;;3.27;66.55;100848.33;114383;1199;103281;-86
2021/04/04 03:26:11;;;;;;;6.80;6.20;;;;;;;3.30;67.01;100843.08;114430;1200;103117;-87
2021/04/04 03:28:39;;;;;;;8.28;7.15;;;;;;;3.34;66.66;100850.14;114578;1199;103201;-85
2021/04/04 03:31:06;;;;;;;9.43;7.80;;;;;;;3.30;66.82;100850.98;114444;1199;103100;-87
2021/04/04 03:33:33;;;;;;;8.67;7.30;;;;;;;3.30;66.22;100849.22;114467;1196;103171;-87
2021/04/04 03:36:00;;;;;;;10.20;6.17;;;;;;;3.29;66.40;100850.11;114369;1198;103239;-86
2021/04/04 03:38:27;;;;;;;7.93;6.25;;;;;;;3.26;66.71;100843.92;114485;1199;103217;-86
2021/04/04 03:40:55;;;;;;;6.10;5.60;;;;;;;3.29;67.02;100846.58;114530;1199;104080;-86
2021/04/04 03:43:25;;;;;;;7.15;6.20;;;;;;;3.21;66.93;100845.61;114617;1198;103268;-86
2021/04/04 03:45:58;;;;;;;12.23;8.20;;;;;;;3.24;67.32;100845.63;114436;1196;103098;-86
2021/04/04 03:48:25;;;;;;;7.93;7.18;;;;;;;3.27;67.35;100846.56;114547;1196;103383;-86
2021/04/04 03:50:53;;;;;;;8.70;7.27;;;;;;;3.26;66.51;100844.79;114579;1196;103375;-86
2021/04/04 03:53:21;;;;;;;8.10;7.15;;;;;;;3.27;66.76;100845.69;114475;1196;104299;-86
2021/04/04 03:56:08;;;;;;;10.33;7.60;;;;;;;3.34;66.46;100845.75;114596;1196;103715;-86
2021/04/04 03:58:38;;;;;;;9.53;7.55;;;;;;;3.33;66.64;100853.63;114423;1196;103289;-86
2021/04/04 04:01:07;;;;;;;12.27;7.87;;;;;;;3.37;66.94;100849.30;114615;1196;103057;-86
2021/04/04 04:03:34;;;;;;;8.80;6.87;;;;;;;3.31;66.29;100850.13;114550;1196;103322;-87
2021/04/04 04:06:01;;;;;;;7.73;6.30;;;;;;;3.34;66.30;100848.38;114536;1196;103204;-87
2021/04/04 04:08:43;;;;;;;8.33;7.53;;;;;;;3.43;66.67;100852.00;114547;1196;103210;-87
2021/04/04 04:11:11;;;;;;;11.37;7.00;;;;;;;3.43;66.25;100858.14;114468;1196;104160;-87
2021/04/04 04:13:53;;;;;;;8.15;7.00;;;;;;;3.44;66.26;100851.11;114473;1196;103667;-87
2021/04/04 04:16:20;;;;;;;9.18;6.93;;;;;;;3.45;66.26;100853.78;114480;1196;103181;-88
2021/04/04 04:18:47;;;;;;;9.75;7.08;;;;;;;3.47;67.07;100861.70;114542;1196;103097;-87
2021/04/04 04:21:14;;;;;;;8.80;6.73;;;;;;;3.45;66.22;100859.05;114575;1196;103837;-86
2021/04/04 04:23:42;;;;;;;11.17;7.20;;;;;;;3.46;66.17;100859.92;114353;1196;103223;-86
2021/04/04 04:26:12;;;;;;;6.55;6.05;;;;;;;3.48;66.41;100860.84;114323;1196;103181;-86
2021/04/04 04:28:41;;;;;;;7.43;6.68;;;;;;;3.42;66.68;100863.39;114289;1196;103129;-86
2021/04/04 04:31:09;;;;;;;13.53;6.60;;;;;;;3.38;66.49;100859.83;114420;1196;103383;-86
2021/04/04 04:33:37;;;;;;;6.97;6.10;;;;;;;3.39;67.08;100858.98;114238;1196;103204;-86
2021/04/04 04:36:04;;;;;;;8.33;6.53;;;;;;;3.42;66.96;100859.00;114445;1196;103101;-86
2021/04/04 04:38:31;;;;;;;8.20;7.00;;;;;;;3.46;66.33;100855.52;114579;1196;103917;-87
2021/04/04 04:40:59;;;;;;;8.37;7.60;;;;;;;3.45;66.36;100859.05;114636;1196;103206;-86
2021/04/04 04:43:26;;;;;;;8.08;5.93;;;;;;;3.41;66.77;100857.26;114403;1196;103127;-85
2021/04/04 04:45:53;;;;;;;11.93;7.40;;;;;;;3.34;66.75;100850.14;114364;1196;104549;-86
2021/04/04 04:48:20;;;;;;;8.53;7.10;;;;;;;3.26;67.40;100849.19;114203;1196;103293;-86
2021/04/04 04:50:46;;;;;;;9.47;7.73;;;;;;;3.21;67.61;100849.11;114212;1196;103110;-86
2021/04/04 04:53:13;;;;;;;8.75;7.90;;;;;;;3.16;67.54;100846.45;114304;1196;103166;-86
2021/04/04 04:55:43;;;;;;;16.93;8.87;;;;;;;3.20;67.46;100854.37;114220;1196;103117;-85
2021/04/04 04:58:10;;;;;;;11.00;8.90;;;;;;;3.20;68.38;100849.10;114331;1196;103305;-87
2021/04/04 05:00:37;;;;;;;10.28;8.50;;;;;;;3.23;68.20;100855.30;114479;1195;103239;-86
2021/04/04 05:03:06;;;;;;;48.35;37.70;;;;;;;3.24;67.95;100862.33;114464;1196;103172;-86
2021/04/04 05:05:32;;;;;;;18.48;15.70;;;;;;;3.31;67.91;100853.63;114517;1196;103143;-87
2021/04/04 05:08:00;;;;;;;15.23;12.40;;;;;;;3.39;67.80;100858.98;114568;1196;103146;-87
2021/04/04 05:10:28;;;;;;;11.97;10.13;;;;;;;3.40;67.61;100865.11;114635;1196;103294;-87
2021/04/04 05:12:57;;;;;;;17.70;15.37;;;;;;;3.36;67.32;100858.95;114506;1196;103191;-87
2021/04/04 05:15:40;;;;;;;15.33;13.80;;;;;;;3.36;67.19;100861.59;114412;1199;103155;-87
2021/04/04 05:18:07;;;;;;;23.20;11.28;;;;;;;3.37;67.85;100860.70;114435;1199;103401;-86
2021/04/04 05:20:34;;;;;;;16.95;10.25;;;;;;;3.34;67.87;100855.41;114459;1199;103206;-87
2021/04/04 05:23:01;;;;;;;15.00;9.73;;;;;;;3.36;67.69;100864.22;114169;1200;103089;-86
2021/04/04 05:25:29;;;;;;;14.85;9.80;;;;;;;3.30;68.20;100865.02;114090;1199;103254;-85
2021/04/04 05:27:57;;;;;;;11.95;9.35;;;;;;;3.30;68.01;100867.64;114184;1199;104237;-86
2021/04/04 05:30:25;;;;;;;11.70;10.20;;;;;;;3.34;68.25;100872.08;114181;1200;103323;-86
2021/04/04 05:32:53;;;;;;;11.13;9.27;;;;;;;3.43;67.62;100873.06;113985;1199;103111;-86
2021/04/04 05:35:41;;;;;;;13.33;8.78;;;;;;;3.36;67.80;100880.02;113964;1199;103315;-86
2021/04/04 05:38:10;;;;;;;9.95;8.85;;;;;;;3.25;67.92;100877.27;114037;1199;103270;-85
2021/04/04 05:40:53;;;;;;;12.00;10.47;;;;;;;3.22;67.51;100881.61;114108;1199;103121;-86
2021/04/04 05:43:37;;;;;;;13.00;9.80;;;;;;;3.22;67.75;100884.23;114035;1202;103392;-86
2021/04/04 05:46:20;;;;;;;10.60;8.60;;;;;;;3.22;67.98;100879.84;114055;1202;103260;-85
2021/04/04 05:49:18;;;;;;;12.93;8.73;;;;;;;3.25;68.51;100884.27;114213;1200;103334;-86
2021/04/04 05:52:04;;;;;;;9.43;8.23;;;;;;;3.31;67.34;100887.84;114292;1198;103419;-85
2021/04/04 05:54:53;;;;;;;10.43;9.13;;;;;;;3.28;68.02;100887.82;114443;1196;103939;-85
2021/04/04 05:57:24;;;;;;;9.45;8.30;;;;;;;3.36;67.40;100880.02;114356;1196;103121;-85
2021/04/04 06:00:04;;;;;;;12.48;9.43;;;;;;;3.41;67.67;100887.95;114599;1196;103175;-86
2021/04/04 06:02:50;;;;;;;8.50;7.60;;;;;;;3.45;67.28;100890.65;114648;1196;103123;-86
2021/04/04 06:05:50;;;;;;;8.53;7.60;;;;;;;3.43;67.56;100887.10;114498;1196;103565;-86
2021/04/04 06:08:50;;;;;;;9.90;7.08;;;;;;;3.49;67.20;100892.45;114469;1196;103190;-87
2021/04/04 06:11:32;;;;;;;10.87;7.13;;;;;;;3.48;67.30;100889.80;114547;1195;103520;-86
2021/04/04 06:14:36;;;;;;;10.53;7.15;;;;;;;3.42;66.95;100895.86;114291;1196;103043;-84
2021/04/04 06:17:19;;;;;;;8.30;7.57;;;;;;;3.41;66.76;100895.84;114250;1196;103185;-85
2021/04/04 06:20:00;;;;;;;13.90;10.28;;;;;;;3.34;67.36;100897.53;114340;1196;103181;-85
2021/04/04 06:22:49;;;;;;;8.17;7.37;;;;;;;3.38;66.74;100901.96;114242;1196;103837;-85
2021/04/04 06:25:22;;;;;;;7.88;7.28;;;;;;;3.40;67.02;100904.61;114245;1196;103178;-85
2021/04/04 06:28:09;;;;;;;8.37;7.50;;;;;;;3.41;67.19;100906.38;114406;1196;103185;-85
2021/04/04 06:30:49;;;;;;;10.80;6.93;;;;;;;3.49;66.78;100908.25;114363;1195;103108;-85
2021/04/04 06:33:26;;;;;;;59.90;38.35;;;;;;;3.49;67.38;100909.97;114225;1196;103207;-86
2021/04/04 06:36:11;;;;;;;95.63;51.70;;;;;;;3.54;66.76;100902.14;114358;1196;103286;-85
2021/04/04 06:38:45;;;;;;;68.77;43.47;;;;;;;3.64;67.31;100896.11;114239;1196;103123;-85
2021/04/04 06:41:53;;;;;;;34.08;19.55;;;;;;;3.76;66.80;100904.13;114122;1196;103139;-85
2021/04/04 06:44:31;;;;;;;14.20;11.70;;;;;;;3.87;66.27;100904.23;114062;1196;103299;-85
2021/04/04 06:47:33;;;;;;;16.00;11.38;;;;;;;3.89;66.00;100902.47;114164;1196;103767;-86
2021/04/04 06:50:21;;;;;;;23.03;16.80;;;;;;;4.02;65.87;100900.84;114101;1196;104942;-85
2021/04/04 06:53:07;;;;;;;13.35;11.43;;;;;;;4.08;65.57;100900.00;114016;1196;103062;-85
2021/04/04 06:55:38;;;;;;;15.35;13.55;;;;;;;4.15;65.71;100910.61;114194;1196;103520;-85
2021/04/04 06:58:20;;;;;;;13.20;10.93;;;;;;;4.16;65.06;100903.61;114162;1195;103631;-85
2021/04/04 07:01:02;;;;;;;11.70;10.60;;;;;;;4.19;65.29;100907.13;114115;1196;103123;-86
2021/04/04 07:03:33;;;;;;;11.57;9.47;;;;;;;4.13;65.03;100908.83;114145;1195;103046;-86
2021/04/04 07:06:19;;;;;;;13.83;10.37;;;;;;;4.16;65.57;100908.88;113986;1196;103308;-86
2021/04/04 07:09:07;;;;;;;10.88;9.78;;;;;;;4.09;64.09;100914.95;114117;1196;103107;-85
2021/04/04 07:11:56;;;;;;;16.83;12.80;;;;;;;4.00;64.04;100921.04;114204;1196;103184;-86
2021/04/04 07:14:42;;;;;;;15.40;10.33;;;;;;;4.01;65.13;100920.14;114251;1196;103252;-85
2021/04/04 07:17:31;;;;;;;17.08;14.85;;;;;;;3.97;64.68;100924.53;114183;1196;103110;-84
2021/04/04 07:20:22;;;;;;;16.10;13.07;;;;;;;4.01;64.80;100923.69;114163;1196;103204;-86
2021/04/04 07:23:14;;;;;;;28.77;16.60;;;;;;;4.24;64.18;100932.64;114122;1196;103155;-87
2021/04/04 07:26:06;;;;;;;13.93;12.58;;;;;;;4.34;63.47;100935.39;114199;1196;103264;-86
2021/04/04 07:29:04;;;;;;;9.95;8.65;;;;;;;4.40;64.33;100937.19;114249;1196;103124;-85
2021/04/04 07:31:50;;;;;;;10.20;9.15;;;;;;;4.46;63.15;100933.70;114227;1196;103258;-84
2021/04/04 07:34:20;;;;;;;22.37;19.70;;;;;;;4.51;63.49;100939.90;114103;1196;103232;-87
2021/04/04 07:36:55;;;;;;;15.98;14.38;;;;;;;4.68;63.56;100932.98;114160;1196;103228;-85
2021/04/04 07:39:34;;;;;;;11.90;9.95;;;;;;;4.84;62.96;100933.95;114225;1196;103194;-84
2021/04/04 07:42:39;;;;;;;13.93;11.48;;;;;;;4.98;61.68;100930.52;114279;1196;103869;-85
2021/04/04 07:45:22;;;;;;;11.60;10.57;;;;;;;5.12;61.78;100927.95;114113;1200;103321;-86
2021/04/04 07:48:25;;;;;;;14.00;9.35;;;;;;;5.21;62.23;100929.73;113782;1202;103271;-85
2021/04/04 07:51:27;;;;;;;11.60;9.60;;;;;;;5.34;61.66;100937.73;113806;1203;103636;-85
2021/04/04 07:54:15;;;;;;;10.03;9.03;;;;;;;5.37;60.74;100939.47;113718;1203;103815;-89
2021/04/04 07:56:43;;;;;;;8.30;7.50;;;;;;;5.30;60.25;100933.28;113858;1203;103130;-85
2021/04/04 07:59:22;;;;;;;10.73;8.83;;;;;;;5.40;60.50;100934.22;113941;1202;103246;-85
2021/04/04 08:02:10;;;;;;;8.70;7.65;;;;;;;5.55;60.53;100937.80;114098;1202;103283;-86
2021/04/04 08:04:42;;;;;;;9.60;8.30;;;;;;;5.74;58.96;100928.15;114131;1201;103223;-85
2021/04/04 08:07:43;;;;;;;8.30;7.50;;;;;;;5.89;58.64;100927.28;114152;1203;103225;-85
2021/04/04 08:10:34;;;;;;;10.98;7.45;;;;;;;5.78;58.59;100935.20;114012;1203;103261;-85
2021/04/04 08:13:16;;;;;;;11.83;9.83;;;;;;;6.00;58.34;100931.74;114239;1203;103491;-86
2021/04/04 08:16:01;;;;;;;12.10;9.38;;;;;;;6.46;57.37;100932.63;114362;1202;103265;-88
2021/04/04 08:18:29;;;;;;;12.50;9.10;;;;;;;6.48;56.67;100931.75;114204;1200;103293;-86
2021/04/04 08:21:08;;;;;;;12.98;11.78;;;;;;;6.41;57.19;100930.00;114061;1202;103589;-87
2021/04/04 08:23:53;;;;;;;11.50;9.63;;;;;;;6.55;56.65;100935.27;113977;1200;103347;-85
2021/04/04 08:26:28;;;;;;;10.10;8.28;;;;;;;6.67;56.60;100931.73;114329;1196;103386;-86
2021/04/04 08:29:26;;;;;;;10.33;8.75;;;;;;;6.72;56.58;100926.41;114209;1199;103290;-87
2021/04/04 08:32:06;;;;;;;10.47;8.23;;;;;;;6.67;54.20;100916.72;113828;1199;103294;-86
2021/04/04 08:34:37;;;;;;;7.78;6.70;;;;;;;6.83;54.51;100916.70;114085;1200;103177;-85
2021/04/04 08:37:14;;;;;;;12.13;9.17;;;;;;;6.90;53.70;100915.78;114028;1200;103232;-84
2021/04/04 08:39:49;;;;;;;8.78;7.85;;;;;;;6.98;52.91;100913.11;114171;1200;103309;-84
2021/04/04 08:42:32;;;;;;;10.57;9.10;;;;;;;6.98;52.60;100907.81;114011;1199;103339;-84
2021/04/04 08:45:03;;;;;;;12.13;10.03;;;;;;;7.07;52.17;100904.27;114112;1199;103276;-85
2021/04/04 08:47:32;;;;;;;15.88;11.00;;;;;;;7.16;52.27;100901.59;114022;1199;103309;-84
2021/04/04 08:50:08;;;;;;;8.95;8.10;;;;;;;7.17;51.26;100903.32;114113;1199;103072;-84
2021/04/04 08:52:52;;;;;;;8.55;7.75;;;;;;;7.23;51.53;100905.09;114015;1199;103258;-84
2021/04/04 08:55:27;;;;;;;7.63;6.90;;;;;;;7.26;50.69;100887.39;114091;1199;103111;-83
2021/04/04 08:58:02;;;;;;;9.13;8.20;;;;;;;7.36;50.85;100881.16;114138;1199;103258;-83
2021/04/04 09:00:30;;;;;;;11.45;9.90;;;;;;;7.43;50.56;100883.79;114105;1199;103225;-84
2021/04/04 09:03:19;;;;;;;17.17;13.73;;;;;;;7.53;49.48;100875.77;114041;1199;103484;-83
2021/04/04 09:05:47;;;;;;;11.40;8.58;;;;;;;7.66;49.93;100878.34;114296;1199;104309;-84
2021/04/04 09:08:17;;;;;;;8.40;7.00;;;;;;;7.83;49.06;100876.45;114417;1196;103190;-83
2021/04/04 09:10:46;;;;;;;11.15;8.18;;;;;;;8.02;49.38;100878.95;114342;1196;103647;-84
2021/04/04 09:13:18;;;;;;;10.60;9.27;;;;;;;8.37;48.84;100881.31;114252;1196;103200;-84
2021/04/04 09:15:51;;;;;;;16.70;13.90;;;;;;;9.34;44.76;100871.39;114345;1196;103129;-84
2021/04/04 09:18:18;;;;;;;6.63;5.60;;;;;;;9.82;43.57;100868.03;114253;1196;103214;-85
2021/04/04 09:20:47;;;;;;;9.00;6.10;;;;;;;11.67;41.49;100865.37;114014;1196;103108;-86
2021/04/04 09:23:19;;;;;;;8.65;6.40;;;;;;;12.19;39.40;100865.92;113850;1196;103136;-85
2021/04/04 09:26:21;;;;;;;5.38;4.88;;;;;;;12.02;38.39;100861.89;113943;1196;103056;-86
2021/04/04 09:28:50;;;;;;;3.78;3.48;;;;;;;13.31;35.46;100855.69;114013;1196;103271;-85
2021/04/04 09:31:36;;;;;;;6.60;3.55;;;;;;;15.28;31.24;100847.23;113972;1196;103187;-85
2021/04/04 09:34:13;;;;;;;4.80;4.30;;;;;;;17.16;29.93;100841.97;114163;1196;103134;-87
2021/04/04 09:36:46;;;;;;;5.17;4.47;;;;;;;18.49;27.18;100848.08;114153;1196;103712;-84
2021/04/04 09:39:17;;;;;;;3.60;3.13;;;;;;;19.74;23.91;100837.69;114229;1196;103219;-84
2021/04/04 09:41:46;;;;;;;3.00;2.63;;;;;;;20.96;23.94;100834.00;114100;1196;103121;-85
2021/04/04 09:44:13;;;;;;;3.50;2.37;;;;;;;21.44;22.54;100833.66;114029;1196;103076;-84
2021/04/04 09:46:59;;;;;;;4.33;3.10;;;;;;;20.05;23.45;100836.81;113619;1196;103744;-84
2021/04/04 09:49:38;;;;;;;3.23;2.60;;;;;;;20.32;21.87;100830.71;113671;1196;103143;-84
2021/04/04 09:52:28;;;;;;;4.48;3.50;;;;;;;20.67;22.90;100835.80;113598;1196;103170;-85
2021/04/04 09:55:06;;;;;;;3.30;3.00;;;;;;;22.06;21.39;100835.06;113706;1195;103178;-85
2021/04/04 09:57:59;;;;;;;2.93;2.63;;;;;;;22.79;20.15;100830.08;114805;1196;103130;-86
2021/04/04 10:00:45;;;;;;;3.35;1.85;;;;;;;22.33;19.37;100823.30;115370;1195;103088;-83
2021/04/04 10:03:15;;;;;;;6.07;2.87;;;;;;;21.97;19.89;100820.27;115176;1195;103129;-84
2021/04/04 10:05:50;;;;;;;2.53;2.33;;;;;;;22.62;18.30;100823.11;115169;1196;104522;-84
2021/04/04 10:08:18;;;;;;;5.33;3.20;;;;;;;23.61;18.97;100810.61;115279;1196;103798;-85
2021/04/04 10:10:53;;;;;;;2.68;2.28;;;;;;;22.89;18.05;100812.16;114762;1196;103123;-85
2021/04/04 10:13:31;;;;;;;2.80;2.00;;;;;;;21.89;20.17;100809.08;113944;1195;103280;-86
2021/04/04 10:16:01;;;;;;;2.08;1.60;;;;;;;21.83;19.98;100807.66;114124;1195;103232;-85
2021/04/04 10:18:28;;;;;;;3.58;2.05;;;;;;;21.16;20.13;100802.08;113916;1195;103261;-85
2021/04/04 10:20:59;;;;;;;3.80;2.10;;;;;;;20.13;19.83;100802.06;113933;1196;103488;-85
2021/04/04 10:23:32;;;;;;;9.05;1.90;;;;;;;20.38;20.16;100792.48;114385;1196;103145;-86
2021/04/04 10:26:03;;;;;;;5.35;3.25;;;;;;;21.88;19.53;100796.48;114300;1196;103584;-85
2021/04/04 10:28:45;;;;;;;2.75;1.63;;;;;;;23.25;18.05;100786.03;114251;1196;103104;-84
2021/04/04 10:31:13;;;;;;;4.08;3.65;;;;;;;22.66;18.17;100794.80;114313;1196;103121;-85
2021/04/04 10:34:02;;;;;;;2.28;1.93;;;;;;;20.85;19.07;100790.51;114161;1196;103118;-85
2021/04/04 10:36:30;;;;;;;4.07;3.27;;;;;;;19.42;20.50;100792.67;114099;1196;103449;-84
2021/04/04 10:38:57;;;;;;;3.07;2.50;;;;;;;18.22;21.60;100794.64;113990;1196;103261;-85
2021/04/04 10:41:32;;;;;;;3.47;2.77;;;;;;;17.29;22.74;100801.03;114129;1196;103267;-86
2021/04/04 10:44:00;;;;;;;2.83;2.35;;;;;;;16.23;23.91;100795.95;114126;1196;103030;-84
2021/04/04 10:46:33;;;;;;;2.77;2.33;;;;;;;17.67;24.08;100782.11;114082;1196;104232;-85
2021/04/04 10:49:02;;;;;;;2.80;1.95;;;;;;;18.59;22.96;100776.48;113903;1196;103504;-85
2021/04/04 10:51:30;;;;;;;5.67;2.30;;;;;;;18.17;22.19;100775.99;114039;1196;103213;-85
2021/04/04 10:54:00;;;;;;;6.17;3.53;;;;;;;17.09;23.36;100767.86;114010;1196;103094;-85
2021/04/04 10:56:29;;;;;;;3.23;2.00;;;;;;;16.04;23.70;100776.11;114165;1196;103083;-82
2021/04/04 10:58:59;;;;;;;4.65;2.50;;;;;;;15.35;25.17;100770.91;114331;1196;103242;-83
2021/04/04 11:01:41;;;;;;;3.03;2.13;;;;;;;14.45;26.13;100771.61;114239;1196;103265;-84
2021/04/04 11:04:11;;;;;;;6.50;5.38;;;;;;;13.74;26.44;100775.88;114308;1196;103091;-84
2021/04/04 11:06:38;;;;;;;7.67;6.07;;;;;;;13.43;27.78;100767.05;114071;1195;104573;-84
2021/04/04 11:09:05;;;;;;;9.67;7.20;;;;;;;13.10;27.86;100759.16;114080;1196;103207;-83
2021/04/04 11:11:32;;;;;;;3.60;3.20;;;;;;;12.98;28.96;100762.19;114214;1196;103155;-84
2021/04/04 11:14:00;;;;;;;5.90;4.85;;;;;;;12.77;29.47;100758.36;114139;1195;103683;-83
2021/04/04 11:16:27;;;;;;;4.10;3.10;;;;;;;12.61;30.12;100760.61;114099;1196;103193;-85
2021/04/04 11:18:56;;;;;;;3.37;2.87;;;;;;;12.35;29.05;100762.23;114180;1196;103312;-84
2021/04/04 11:21:38;;;;;;;4.58;3.00;;;;;;;12.04;29.30;100757.73;114324;1195;103120;-87
2021/04/04 11:24:15;;;;;;;6.25;4.53;;;;;;;11.83;30.69;100761.80;114161;1196;103306;-85
2021/04/04 11:26:59;;;;;;;4.90;4.33;;;;;;;11.52;30.98;100752.77;114250;1196;103302;-83
2021/04/04 11:29:27;;;;;;;5.43;4.90;;;;;;;11.26;31.72;100747.19;114343;1196;103241;-83
2021/04/04 11:31:57;;;;;;;4.00;3.55;;;;;;;11.14;32.05;100743.92;114500;1196;103875;-84
2021/04/04 11:34:35;;;;;;;4.15;2.95;;;;;;;10.98;32.28;100748.72;114269;1196;103452;-85
2021/04/04 11:37:29;;;;;;;4.05;3.18;;;;;;;10.86;32.43;100728.55;114272;1196;103095;-84
2021/04/04 11:40:19;;;;;;;4.00;3.23;;;;;;;10.66;31.76;100736.08;114258;1196;103870;-84
2021/04/04 11:43:28;;;;;;;3.63;3.08;;;;;;;10.45;32.57;100732.08;114321;1196;103271;-84
2021/04/04 11:45:54;;;;;;;3.40;3.10;;;;;;;10.38;32.21;100720.67;114364;1196;103127;-83
2021/04/04 11:48:29;;;;;;;3.18;2.98;;;;;;;10.32;32.11;100720.78;114338;1195;103181;-84